Hales Eddy, New York
Current Conditions -  °F | °C
As of 1:55 PM on Sunday 23 Nov 2014 (Local Time) from KMSV Reporting Station
Broken Clouds Broken Clouds  
Wind Chill: 52°   Ceiling: 11000
Heat Index: 52°   Visibility: 10mi
Dew Point: 28°   Wind: 0mph
Humidity: 41%   Direction: NA
Pressure: 30.1"   Gusts: NA
Location:  41.9099°N, 75.1815°W
Report Text: KMSV 231855Z AUTO 00000KT 10SM BKN110 11/M02 A3010 RMK AO1
Loading
Personal Weather Stations






























Interactive Weather Map New forecast layout! Learn more

10-Day Weather Forecast

Advertisements
Track Severe Weather on mobile